createdAt,value
2023-04-30T00:00:03.154Z,67.91
2023-04-30T00:02:37.968Z,67.88
2023-04-30T00:05:05.562Z,68.29
2023-04-30T00:07:32.381Z,68.15
2023-04-30T00:09:59.118Z,68.20
2023-04-30T00:12:25.840Z,68.24
2023-04-30T00:14:52.670Z,68.18
2023-04-30T00:17:19.506Z,67.79
2023-04-30T00:19:46.474Z,68.49
2023-04-30T00:22:13.187Z,68.20
2023-04-30T00:24:40.028Z,68.24
2023-04-30T00:27:06.816Z,68.53
2023-04-30T00:29:33.631Z,68.73
2023-04-30T00:32:00.427Z,68.54
2023-04-30T00:34:27.739Z,68.41
2023-04-30T00:36:54.567Z,68.27
2023-04-30T00:39:21.343Z,68.47
2023-04-30T00:41:48.061Z,68.74
2023-04-30T00:44:14.806Z,68.44
2023-04-30T00:46:41.672Z,68.15
2023-04-30T00:49:08.579Z,68.18
2023-04-30T00:51:35.633Z,68.18
2023-04-30T00:54:03.315Z,68.14
2023-04-30T00:56:33.579Z,68.52
2023-04-30T00:59:00.348Z,68.44
2023-04-30T01:01:31.909Z,68.30
2023-04-30T01:03:58.725Z,68.06
2023-04-30T01:06:26.798Z,68.24
2023-04-30T01:08:54.110Z,68.23
2023-04-30T01:11:23.985Z,68.15
2023-04-30T01:13:56.881Z,68.36
2023-04-30T01:16:26.527Z,67.94
2023-04-30T01:19:00.972Z,68.28
2023-04-30T01:21:31.160Z,68.63
2023-04-30T01:24:39.443Z,69.08
2023-04-30T01:27:37.773Z,68.97
2023-04-30T01:30:05.173Z,68.92
2023-04-30T01:32:32.047Z,69.07
2023-04-30T01:34:59.715Z,68.55
2023-04-30T01:37:46.346Z,68.60
2023-04-30T01:40:20.913Z,68.67
2023-04-30T01:42:50.797Z,68.59
2023-04-30T01:45:48.063Z,68.65
2023-04-30T01:48:22.910Z,68.97
2023-04-30T01:50:52.323Z,69.05
2023-04-30T01:53:25.547Z,69.20
2023-04-30T01:55:57.972Z,69.32
2023-04-30T01:58:25.690Z,69.20
2023-04-30T02:00:53.219Z,69.44
2023-04-30T02:03:20.260Z,68.90
2023-04-30T02:05:47.758Z,69.36
2023-04-30T02:08:14.699Z,69.70
2023-04-30T02:10:41.479Z,69.51
2023-04-30T02:13:08.299Z,69.43
2023-04-30T02:15:35.256Z,69.77
2023-04-30T02:18:02.068Z,69.86
2023-04-30T02:20:28.883Z,69.65
2023-04-30T02:22:55.769Z,69.83
2023-04-30T02:25:22.591Z,69.56
2023-04-30T02:27:50.631Z,69.57
2023-04-30T02:30:17.492Z,70.01
2023-04-30T02:32:44.269Z,69.76
2023-04-30T02:35:12.073Z,69.22
2023-04-30T02:37:38.937Z,69.20
2023-04-30T02:40:13.583Z,68.78
2023-04-30T02:42:40.415Z,68.98
2023-04-30T02:45:07.589Z,69.08
2023-04-30T02:47:34.375Z,69.23
2023-04-30T02:50:01.220Z,69.13
2023-04-30T02:52:28.291Z,69.13
2023-04-30T02:54:55.286Z,69.57
2023-04-30T02:57:22.259Z,69.52
2023-04-30T02:59:49.304Z,69.49
2023-04-30T03:02:16.827Z,69.58
2023-04-30T03:04:43.822Z,69.60
2023-04-30T03:07:11.444Z,69.63
2023-04-30T03:09:38.300Z,69.47
2023-04-30T03:12:05.853Z,69.34
2023-04-30T03:14:32.745Z,69.64
2023-04-30T03:16:59.594Z,69.68
2023-04-30T03:19:28.639Z,69.79
2023-04-30T03:21:55.549Z,69.75
2023-04-30T03:24:22.328Z,69.80
2023-04-30T03:26:49.168Z,69.42
2023-04-30T03:29:16.155Z,69.50
2023-04-30T03:31:42.989Z,69.77
2023-04-30T03:34:10.084Z,69.46
2023-04-30T03:36:37.921Z,69.71
2023-04-30T03:39:04.827Z,69.55
2023-04-30T03:41:31.706Z,69.68
2023-04-30T03:43:58.485Z,69.67
2023-04-30T03:46:25.269Z,69.62
2023-04-30T03:48:52.424Z,70.00
2023-04-30T03:51:20.691Z,69.94
2023-04-30T03:53:47.497Z,69.84
2023-04-30T03:56:14.632Z,70.38
2023-04-30T03:58:43.674Z,70.19
2023-04-30T04:01:10.711Z,69.91
2023-04-30T04:03:38.131Z,70.20
2023-04-30T04:06:05.429Z,70.31
2023-04-30T04:08:33.100Z,70.14
2023-04-30T04:11:00.245Z,70.58
2023-04-30T04:13:27.036Z,70.24
2023-04-30T04:15:54.036Z,70.58
2023-04-30T04:18:21.575Z,70.79
2023-04-30T04:20:48.339Z,70.29
2023-04-30T04:23:16.740Z,70.51
2023-04-30T04:25:44.373Z,70.53
2023-04-30T04:28:11.764Z,70.70
2023-04-30T04:30:40.896Z,70.42
2023-04-30T04:33:08.877Z,70.89
2023-04-30T04:35:35.750Z,70.57
2023-04-30T04:38:05.190Z,71.00
2023-04-30T04:40:33.071Z,70.35
2023-04-30T04:42:59.887Z,70.75
2023-04-30T04:45:26.769Z,70.55
2023-04-30T04:47:53.894Z,70.46
2023-04-30T04:50:21.436Z,70.42
2023-04-30T04:52:48.254Z,70.62
2023-04-30T04:55:17.712Z,70.35
2023-04-30T04:57:45.617Z,69.98
2023-04-30T05:00:13.173Z,70.46
2023-04-30T05:02:40.083Z,70.32
2023-04-30T05:05:07.892Z,70.46
2023-04-30T05:07:35.230Z,70.15
2023-04-30T05:10:04.769Z,70.33
2023-04-30T05:12:33.466Z,70.47
2023-04-30T05:15:00.629Z,70.41
2023-04-30T05:17:27.497Z,70.52
2023-04-30T05:19:54.579Z,70.55
2023-04-30T05:22:21.638Z,70.13
2023-04-30T05:24:48.710Z,70.38
2023-04-30T05:27:16.817Z,70.37
2023-04-30T05:29:45.781Z,69.95
2023-04-30T05:32:12.613Z,70.08
2023-04-30T05:34:39.436Z,70.21
2023-04-30T05:37:06.183Z,69.94
2023-04-30T05:39:33.068Z,69.02
2023-04-30T05:42:00.075Z,69.08
2023-04-30T05:44:26.979Z,69.29
2023-04-30T05:46:53.748Z,69.12
2023-04-30T05:49:20.518Z,68.68
2023-04-30T05:51:47.301Z,68.97
2023-04-30T05:54:13.952Z,69.14
2023-04-30T05:56:40.763Z,68.81
2023-04-30T05:59:07.704Z,68.86
2023-04-30T06:01:35.706Z,68.73
2023-04-30T06:04:04.806Z,69.09
2023-04-30T06:06:34.582Z,68.54
2023-04-30T06:09:01.432Z,69.17
2023-04-30T06:11:28.234Z,69.65
2023-04-30T06:13:54.977Z,69.76
2023-04-30T06:16:21.962Z,70.03
2023-04-30T06:18:49.116Z,70.05
2023-04-30T06:21:16.182Z,69.42
2023-04-30T06:23:45.727Z,69.63
2023-04-30T06:26:16.265Z,69.85
2023-04-30T06:28:43.195Z,68.41
2023-04-30T06:31:10.017Z,68.73
2023-04-30T06:33:37.204Z,68.84
2023-04-30T06:36:04.346Z,69.63
2023-04-30T06:38:31.108Z,68.53
2023-04-30T06:40:57.930Z,68.72
2023-04-30T06:43:27.790Z,68.75
2023-04-30T06:45:54.770Z,68.91
2023-04-30T06:48:21.676Z,69.23
2023-04-30T06:50:48.512Z,69.21
2023-04-30T06:53:15.509Z,68.53
2023-04-30T06:55:49.934Z,68.88
2023-04-30T06:58:16.904Z,68.32
2023-04-30T07:00:49.757Z,68.98
2023-04-30T07:03:16.781Z,69.17
2023-04-30T07:05:44.335Z,69.83
2023-04-30T07:08:16.701Z,68.24
2023-04-30T07:10:52.324Z,67.79
2023-04-30T07:13:32.780Z,70.37
2023-04-30T07:16:06.719Z,68.17
2023-04-30T07:18:35.629Z,67.80
2023-04-30T07:21:02.723Z,68.04
2023-04-30T07:23:30.625Z,67.71
2023-04-30T07:26:03.557Z,67.86
2023-04-30T07:28:30.710Z,67.49
2023-04-30T07:31:03.220Z,67.60
2023-04-30T07:33:33.507Z,67.74
2023-04-30T07:36:08.659Z,67.58
2023-04-30T07:38:41.830Z,67.22
2023-04-30T07:41:11.852Z,67.96
2023-04-30T07:44:01.364Z,65.03
2023-04-30T07:46:45.128Z,65.86
2023-04-30T07:49:13.978Z,65.12
2023-04-30T07:51:45.076Z,65.74
2023-04-30T07:54:15.980Z,66.41
2023-04-30T07:56:43.198Z,66.14
2023-04-30T07:59:10.186Z,66.01
2023-04-30T08:01:40.157Z,65.45
2023-04-30T08:04:10.775Z,65.02
2023-04-30T08:06:37.805Z,65.25
2023-04-30T08:09:04.974Z,65.29
2023-04-30T08:11:31.978Z,65.39
2023-04-30T08:13:58.780Z,63.43
2023-04-30T08:16:28.635Z,63.91
2023-04-30T08:18:55.910Z,63.70
2023-04-30T08:21:31.649Z,62.84
2023-04-30T08:24:01.503Z,62.86
2023-04-30T08:26:32.068Z,62.97
2023-04-30T08:29:01.088Z,62.25
2023-04-30T08:31:29.042Z,62.75
2023-04-30T08:33:59.062Z,63.86
2023-04-30T08:36:28.874Z,62.94
2023-04-30T08:38:55.799Z,62.95
2023-04-30T08:41:26.273Z,63.14
2023-04-30T08:43:53.894Z,63.79
2023-04-30T08:46:21.744Z,62.87
2023-04-30T08:48:48.985Z,62.73
2023-04-30T08:51:16.341Z,62.24
2023-04-30T08:53:44.711Z,62.28
2023-04-30T08:56:11.656Z,62.45
2023-04-30T08:58:40.865Z,62.07
2023-04-30T09:01:13.679Z,60.91
2023-04-30T09:03:40.712Z,61.08
2023-04-30T09:09:12.709Z,55.08
2023-04-30T09:11:42.162Z,54.02
2023-04-30T09:14:09.092Z,57.32
2023-04-30T09:16:55.365Z,57.37
2023-04-30T09:19:33.447Z,56.92
2023-04-30T09:22:23.322Z,56.53
2023-04-30T09:24:58.435Z,56.30
2023-04-30T09:27:32.242Z,54.54
2023-04-30T09:30:08.738Z,54.19
2023-04-30T09:32:55.809Z,53.54
2023-04-30T09:35:29.870Z,54.92
2023-04-30T09:37:56.947Z,56.30
2023-04-30T09:40:38.136Z,55.81
2023-04-30T09:43:08.284Z,56.57
2023-04-30T09:45:53.851Z,53.86
2023-04-30T09:48:25.737Z,55.43
2023-04-30T09:50:59.173Z,53.87
2023-04-30T09:53:26.867Z,54.18
2023-04-30T09:55:55.672Z,53.47
2023-04-30T09:58:26.423Z,53.56
2023-04-30T10:01:07.246Z,54.26
2023-04-30T10:03:35.677Z,54.93
2023-04-30T10:06:03.596Z,55.13
2023-04-30T10:08:36.474Z,55.04
2023-04-30T10:11:06.000Z,54.97
2023-04-30T10:13:45.893Z,55.17
2023-04-30T10:16:32.996Z,53.80
2023-04-30T10:19:07.322Z,54.52
2023-04-30T10:21:36.965Z,54.46
2023-04-30T10:24:07.059Z,54.67
2023-04-30T10:26:34.054Z,54.09
2023-04-30T10:29:03.337Z,54.34
2023-04-30T10:31:30.926Z,53.80
2023-04-30T10:34:33.616Z,52.32
2023-04-30T10:37:06.978Z,51.79
2023-04-30T10:39:35.601Z,53.45
2023-04-30T10:42:04.211Z,53.03
2023-04-30T10:44:35.336Z,53.41
2023-04-30T10:47:02.743Z,52.65
2023-04-30T10:49:30.592Z,51.39
2023-04-30T10:52:05.212Z,51.78
2023-04-30T10:54:34.615Z,53.34
2023-04-30T10:57:14.723Z,52.15
2023-04-30T10:59:51.918Z,51.05
2023-04-30T11:02:18.807Z,50.98
2023-04-30T11:05:07.770Z,50.60
2023-04-30T11:07:37.280Z,52.56
2023-04-30T11:10:11.899Z,52.84
2023-04-30T11:12:58.035Z,51.76
2023-04-30T11:15:38.205Z,51.75
2023-04-30T11:18:08.242Z,53.15
2023-04-30T11:20:58.811Z,52.83
2023-04-30T11:23:41.740Z,53.27
2023-04-30T11:26:09.354Z,53.00
2023-04-30T11:28:37.835Z,51.33
2023-04-30T11:31:04.832Z,52.02
2023-04-30T11:33:34.906Z,52.37
2023-04-30T11:36:02.510Z,51.58
2023-04-30T11:38:49.434Z,51.83
2023-04-30T11:41:56.045Z,52.49
2023-04-30T11:44:27.032Z,52.80
2023-04-30T11:46:58.920Z,52.80
2023-04-30T11:49:28.271Z,52.55
2023-04-30T11:52:00.634Z,52.22
2023-04-30T11:54:42.064Z,52.54
2023-04-30T11:57:26.122Z,52.91
2023-04-30T11:59:53.539Z,52.04
2023-04-30T12:02:24.678Z,51.73
2023-04-30T12:05:00.878Z,51.57
2023-04-30T12:07:35.935Z,51.14
2023-04-30T12:10:13.438Z,51.35
2023-04-30T12:12:47.040Z,52.84
2023-04-30T12:15:21.819Z,52.09
2023-04-30T12:17:56.979Z,52.15
2023-04-30T12:20:30.434Z,52.70
2023-04-30T12:23:16.624Z,52.44
2023-04-30T12:25:49.834Z,52.68
2023-04-30T12:28:45.358Z,52.60
2023-04-30T12:31:18.984Z,52.22
2023-04-30T12:34:02.772Z,52.25
2023-04-30T12:36:51.775Z,52.02
2023-04-30T12:39:24.863Z,50.91
2023-04-30T12:42:03.663Z,52.21
2023-04-30T12:44:52.174Z,48.75
2023-04-30T12:47:27.176Z,51.48
2023-04-30T12:50:19.024Z,50.84
2023-04-30T12:52:55.930Z,51.22
2023-04-30T12:55:30.027Z,51.38
2023-04-30T12:58:17.915Z,48.32
2023-04-30T13:00:55.612Z,50.38
2023-04-30T13:03:29.218Z,50.74
2023-04-30T13:05:56.792Z,51.12
2023-04-30T13:08:31.487Z,51.02
2023-04-30T13:11:11.567Z,51.05
2023-04-30T13:13:40.303Z,50.95
2023-04-30T13:16:14.077Z,50.12
2023-04-30T13:18:41.139Z,49.97
2023-04-30T13:21:10.910Z,50.17
2023-04-30T13:23:51.885Z,49.18
2023-04-30T13:26:34.019Z,49.66
2023-04-30T13:29:31.955Z,48.32
2023-04-30T13:32:06.597Z,48.84
2023-04-30T13:34:38.892Z,49.63
2023-04-30T13:37:07.223Z,49.51
2023-04-30T13:40:01.353Z,48.03
2023-04-30T13:43:05.960Z,48.37
2023-04-30T13:57:46.123Z,48.63
2023-04-30T14:00:25.488Z,49.04
2023-04-30T14:03:08.115Z,49.35
2023-04-30T14:07:14.879Z,48.20
2023-04-30T14:14:41.229Z,49.21
2023-04-30T14:21:41.577Z,48.24
2023-04-30T14:25:47.583Z,47.16
2023-04-30T14:29:32.625Z,47.90
2023-04-30T14:43:51.333Z,48.24
2023-04-30T14:51:59.762Z,48.06
2023-04-30T14:55:08.771Z,48.61
2023-04-30T14:57:57.230Z,46.82
2023-04-30T15:00:41.238Z,47.26
2023-04-30T15:03:19.639Z,48.09
2023-04-30T15:05:52.730Z,48.22
2023-04-30T15:08:42.256Z,47.55
2023-04-30T15:11:26.771Z,47.64
2023-04-30T15:14:06.871Z,48.02
2023-04-30T15:16:45.276Z,47.91
2023-04-30T15:23:18.368Z,47.97
2023-04-30T15:25:54.525Z,47.28
2023-04-30T15:28:39.033Z,46.96
2023-04-30T15:31:25.884Z,46.87
2023-04-30T15:34:06.321Z,47.28
2023-04-30T15:44:33.180Z,46.63
2023-04-30T15:47:49.482Z,46.46
2023-04-30T15:50:27.297Z,47.01
2023-04-30T15:53:01.749Z,46.44
2023-04-30T15:55:39.344Z,45.51
2023-04-30T15:58:16.177Z,46.02
2023-04-30T16:01:13.541Z,45.69
2023-04-30T16:03:50.724Z,46.09
2023-04-30T16:06:22.578Z,46.92
2023-04-30T16:08:53.115Z,46.98
2023-04-30T16:11:30.264Z,47.07
2023-04-30T16:14:35.427Z,47.24
2023-04-30T16:17:22.588Z,46.86
2023-04-30T16:20:11.320Z,46.81
2023-04-30T16:22:47.113Z,46.35
2023-04-30T16:25:23.419Z,46.47
2023-04-30T16:27:59.905Z,46.42
2023-04-30T16:30:33.732Z,46.45
2023-04-30T16:33:05.656Z,46.18
2023-04-30T16:35:36.153Z,46.04
2023-04-30T16:42:10.437Z,45.89
2023-04-30T16:44:54.600Z,46.03
2023-04-30T16:47:45.346Z,45.66
2023-04-30T16:50:17.126Z,46.42
2023-04-30T16:53:22.381Z,45.21
2023-04-30T16:57:00.203Z,46.10
2023-04-30T17:00:48.664Z,46.46
2023-04-30T17:14:19.481Z,47.40
2023-04-30T17:17:29.070Z,46.83
2023-04-30T17:20:15.645Z,46.48
2023-04-30T17:26:47.555Z,46.27
2023-04-30T17:29:35.264Z,46.60
2023-04-30T17:32:17.812Z,46.31
2023-04-30T17:34:52.153Z,46.58
2023-04-30T17:37:19.274Z,47.29
2023-04-30T17:39:46.446Z,47.37
2023-04-30T17:42:13.360Z,46.85
2023-04-30T17:44:40.071Z,47.65
2023-04-30T17:47:07.218Z,47.96
2023-04-30T17:49:33.911Z,47.81
2023-04-30T17:52:01.228Z,48.14
2023-04-30T17:54:31.451Z,48.41
2023-04-30T17:56:59.161Z,47.59
2023-04-30T17:59:28.522Z,48.37
2023-04-30T18:01:55.321Z,49.32
2023-04-30T18:04:22.764Z,49.68
2023-04-30T18:06:49.648Z,49.09
2023-04-30T18:09:16.502Z,48.74
2023-04-30T18:11:43.583Z,48.83
2023-04-30T18:14:20.110Z,49.58
2023-04-30T18:16:52.475Z,49.74
2023-04-30T18:19:21.727Z,49.60
2023-04-30T18:21:58.116Z,49.57
2023-04-30T18:24:35.454Z,50.62
2023-04-30T18:27:12.274Z,50.76
2023-04-30T18:29:48.498Z,51.01
2023-04-30T18:32:39.180Z,52.06
2023-04-30T18:35:14.592Z,52.30
2023-04-30T18:37:53.188Z,53.88
2023-04-30T18:40:45.628Z,54.43
2023-04-30T18:43:21.110Z,53.63
2023-04-30T18:46:18.438Z,53.55
2023-04-30T18:49:08.301Z,53.70
2023-04-30T18:52:29.565Z,55.33
2023-04-30T18:55:23.924Z,54.88
2023-04-30T19:01:53.708Z,56.12
2023-04-30T19:04:52.656Z,55.64
2023-04-30T19:07:59.881Z,55.57
2023-04-30T19:11:20.925Z,57.11
2023-04-30T19:14:01.194Z,56.14
2023-04-30T19:18:36.374Z,57.63
2023-04-30T19:21:04.677Z,57.13
2023-04-30T19:27:42.887Z,59.62
2023-04-30T19:30:29.253Z,59.54
2023-04-30T19:33:28.821Z,58.36
2023-04-30T19:40:42.199Z,59.82
2023-04-30T19:47:27.132Z,59.78
2023-04-30T19:50:40.190Z,59.52
2023-04-30T19:53:17.328Z,59.24
2023-04-30T19:56:10.436Z,57.71
2023-04-30T19:59:06.255Z,57.91
2023-04-30T20:01:44.963Z,58.44
2023-04-30T20:04:42.041Z,59.95
2023-04-30T20:07:42.498Z,59.94
2023-04-30T20:10:43.887Z,61.51
2023-04-30T20:13:41.599Z,60.80
2023-04-30T20:20:04.783Z,61.53
2023-04-30T20:26:59.595Z,62.57
2023-04-30T20:42:18.368Z,61.25
2023-04-30T20:50:09.710Z,62.39
2023-04-30T20:56:51.091Z,61.59
2023-04-30T21:00:07.930Z,62.00
2023-04-30T21:07:37.340Z,62.47
2023-04-30T21:10:51.307Z,63.03
2023-04-30T21:14:28.561Z,62.57
2023-04-30T21:17:41.055Z,60.45
2023-04-30T21:24:31.826Z,61.52
2023-04-30T21:28:07.178Z,61.90
2023-04-30T21:35:37.744Z,62.54
2023-04-30T21:50:12.446Z,64.54
2023-04-30T22:13:38.910Z,65.00
2023-04-30T22:16:58.713Z,64.95
2023-04-30T22:19:54.786Z,64.96
2023-04-30T22:26:56.911Z,65.18
2023-04-30T22:30:11.789Z,64.78
2023-04-30T22:33:29.256Z,64.52
2023-04-30T22:36:36.207Z,64.80
2023-04-30T22:43:52.150Z,64.62
2023-04-30T22:57:15.106Z,65.62
2023-04-30T23:00:00.910Z,65.51
2023-04-30T23:03:34.211Z,66.36
2023-04-30T23:09:43.626Z,65.99
2023-04-30T23:13:16.925Z,66.37
2023-04-30T23:16:35.293Z,65.82
2023-04-30T23:23:18.214Z,65.89
2023-04-30T23:26:15.909Z,65.65
2023-04-30T23:38:17.346Z,66.88
2023-04-30T23:41:49.592Z,65.99
2023-04-30T23:55:41.656Z,66.04
2023-04-30T23:58:47.563Z,65.28
